We bring you up!

Munich Aviation Company

Munich Aviation Company

Munich Aviation Company

Munich Aviation Company

Sie finden uns auch auf: Munich Aviation Company auf Instagram

Flugwetter Augsburg

[Quelle: ADDS]
METAR
EDMA 211820Z 23006KT CAVOK 10/03 Q1012 =
EDMA 211700Z 2118/2203 25010KT 9999 SCT040 BECMG 2122/2124 28005KT
TAF
EDMA 211700Z 2118/2203 25010KT 9999 SCT040 BECMG 2122/2124 28005KT =

Kontakt